Latest Coastal Weather Observations for Rottnest Island

IDW60701

Issued at 10:43 am WST Thursday 30 March 2017 (issued every 10 minutes, with the page automatically refreshed every 10 minutes)

About coastal observations | Map of coastal stations | Coastal observations for WA | Marine services | Other Formats
Station Details ID: 009193 Name: ROTTNEST ISLAND Lat: -32.01 Lon: 115.50 Height: 43.1 m
Data from the previous 72 hours. | See also: Recent months at Rottnest Island
Date/Time
WST
Temp
°C
Wind Pressure Rain since
9am
mm
Weather Cloud Vis
km
Sea
Height
m
Swell
Dir  Spd
kts
Gust
kts
hPa Trend Height
m
Period
s
Dir
30/10:30am 21.4 ENE 10 17 1022.2 - 0.0 - - - - - - -
30/10:00am 19.9 ENE 9 14 1022.6 - 0.0 - - - - - - -
30/09:30am 18.7 ENE 12 17 1022.7 - 0.0 - - - - - - -
30/09:00am 17.8 ENE 13 17 1022.9 - 0.0 - - - - - - -
30/08:30am 17.0 ENE 14 19 1022.8 - 0.0 - - - - - - -
30/08:00am 16.4 ENE 13 21 1022.9 - 0.0 - - - - - - -
30/07:30am 16.0 ENE 14 19 1022.8 - 0.0 - - - - - - -
30/07:00am 15.6 ENE 14 19 1022.8 - 0.0 - - - - - - -
30/06:30am 15.6 ENE 15 21 1022.5 - 0.0 - - - - - - -
30/06:00am 15.7 E 15 21 1022.5 - 0.0 - - - - - - -
30/05:30am 15.9 E 15 23 1022.3 - 0.0 - - - - - - -
30/05:00am 16.0 E 15 23 1022.2 - 0.0 - - - - - - -
30/04:30am 16.2 E 15 21 1022.1 - 0.0 - - - - - - -
30/04:00am 16.6 E 14 21 1022.0 - 0.0 - - - - - - -
30/03:30am 16.6 E 13 18 1022.0 - 0.0 - - - - - - -
30/03:00am 16.4 E 11 16 1022.0 - 0.0 - - - - - - -
30/02:30am 16.4 E 11 14 1022.0 - 0.0 - - - - - - -
30/02:00am 16.9 E 14 19 1022.1 - 0.0 - - - - - - -
30/01:30am 17.2 E 12 18 1022.6 - 0.0 - - - - - - -
30/01:00am 17.6 ESE 11 15 1022.6 - 0.0 - - - - - - -
30/12:30am 18.1 ESE 13 17 1022.4 - 0.0 - - - - - - -
30/12:00am 18.6 ESE 13 18 1022.3 - 0.0 - - - - - - -
 
Date/Time
WST
Temp
°C
Wind Pressure Rain since
9am
mm
Weather Cloud Vis
km
Sea
Height
m
Swell
Dir  Spd
kts
Gust
kts
hPa Trend Height
m
Period
s
Dir
29/11:30pm 18.9 ESE 11 17 1022.5 - 0.0 - - - - - - -
29/11:00pm 19.1 SE 12 18 1022.8 - 0.0 - - - - - - -
29/10:30pm 19.3 SE 11 16 1022.9 - 0.0 - - - - - - -
29/10:00pm 19.6 SE 11 16 1022.9 - 0.0 - - - - - - -
29/09:30pm 19.9 SE 11 16 1022.9 - 0.0 - - - - - - -
29/09:00pm 19.9 SE 11 17 1022.7 - 0.0 - - - - - - -
29/08:30pm 20.0 ESE 9 14 1022.7 - 0.0 - - - - - - -
29/08:00pm 20.3 ESE 9 14 1022.5 - 0.0 - - - - - - -
29/07:30pm 20.4 ESE 9 13 1022.2 - 0.0 - - - - - - -
29/07:00pm 20.9 ESE 10 13 1022.0 - 0.0 - - - - - - -
29/06:30pm 21.0 ESE 9 13 1021.7 - 0.0 - - - - - - -
29/06:00pm 21.3 ESE 9 16 1021.5 - 0.0 - - - - - - -
29/05:30pm 22.2 SE 9 15 1021.4 - 0.0 - - - - - - -
29/05:00pm 22.5 SE 11 15 1021.4 - 0.0 - - - - - - -
29/04:30pm 22.6 SE 13 16 1021.3 - 0.0 - - - - - - -
29/04:00pm 22.5 SE 14 19 1021.4 - 0.0 - - - - - - -
29/03:30pm 22.7 SE 13 16 1021.4 - 0.0 - - - - - - -
29/03:00pm 22.5 SE 14 18 1021.6 - 0.0 - - - - - - -
29/02:30pm 22.0 SE 13 17 1021.8 - 0.0 - - - - - - -
29/02:00pm 21.8 SE 12 17 1022.1 - 0.0 - - - - - - -
29/01:30pm 21.5 SE 12 17 1022.5 - 0.0 - - - - - - -
29/01:00pm 20.3 SE 13 17 1022.9 - 0.0 - - - - - - -
29/12:30pm 20.4 SE 13 18 1023.4 - 0.0 - - - - - - -
29/12:00pm 19.8 E 11 18 1023.9 - 0.0 - - - - - - -
29/11:30am 19.5 ESE 11 16 1024.1 - 0.0 - - - - - - -
29/11:00am 18.7 ESE 13 21 1024.4 - 0.0 - - - - - - -
29/10:30am 17.5 ESE 13 19 1024.7 - 0.0 - - - - - - -
29/10:00am 17.1 ESE 13 22 1024.6 - 0.0 - - - - - - -
29/09:30am 16.6 ESE 12 17 1024.9 - 0.0 - - - - - - -
29/09:00am 15.5 ESE 12 19 1025.0 - 0.0 - - - - - - -
29/08:30am 15.1 ESE 13 23 1025.0 - 0.0 - - - - - - -
29/08:00am 15.0 SE 13 20 1024.8 - 0.0 - - - - - - -
29/07:35am 14.5 SE 16 27 1024.3 - 0.0 - - - - - - -
29/07:30am 14.5 SE 16 24 1024.5 - 0.0 - - - - - - -
29/07:00am 14.0 ESE 15 24 1024.1 - 0.0 - - - - - - -
29/06:30am 13.7 ESE 14 22 1023.7 - 0.0 - - - - - - -
29/06:00am 14.0 SE 18 27 1023.3 - 0.0 - - - - - - -
29/05:41am 14.1 SE 17 27 1023.2 - 0.0 - - - - - - -
29/05:30am 14.2 SE 16 24 1023.1 - 0.0 - - - - - - -
29/05:00am 14.5 SE 17 28 1022.7 - 0.0 - - - - - - -
29/04:55am 14.5 SE 17 28 1022.7 - 0.0 - - - - - - -
29/04:30am 14.8 SE 20 29 1022.5 - 0.0 - - - - - - -
29/04:00am 15.0 SE 22 29 1021.9 - 0.0 - - - - - - -
29/03:35am 15.4 SSE 21 31 1021.3 - 0.0 - - - - - - -
29/03:30am 15.6 SSE 22 28 1021.4 - 0.0 - - - - - - -
29/03:00am 16.1 SSE 21 29 1021.1 - 0.0 - - - - - - -
29/02:30am 16.3 SSE 21 27 1021.1 - 0.0 - - - - - - -
29/02:00am 16.7 SE 24 30 1020.8 - 0.0 - - - - - - -
29/01:30am 16.9 SE 23 30 1020.4 - 0.0 - - - - - - -
29/01:14am 17.1 SSE 21 31 1020.4 - 0.0 - - - - - - -
29/01:00am 17.3 SSE 27 35 1020.1 - 0.0 - - - - - - -
29/12:30am 17.3 SSE 26 32 1019.8 - 0.0 - - - - - - -
29/12:00am 17.5 SSE 27 33 1019.5 - 0.0 - - - - - - -
 
Date/Time
WST
Temp
°C
Wind Pressure Rain since
9am
mm
Weather Cloud Vis
km
Sea
Height
m
Swell
Dir  Spd
kts
Gust
kts
hPa Trend Height
m
Period
s
Dir
28/11:30pm 17.8 SSE 24 31 1019.8 - 0.0 - - - - - - -
28/11:00pm 18.0 S 27 32 1019.4 - 0.0 - - - - - - -
28/10:30pm 18.2 S 25 29 1019.6 - 0.0 - - - - - - -
28/10:00pm 18.8 S 25 30 1019.5 - 0.0 - - - - - - -
28/09:30pm 19.0 S 25 29 1019.0 - 0.0 - - - - - - -
28/09:00pm 18.7 S 22 28 1019.3 - 0.0 - - - - - - -
28/08:30pm 19.2 S 22 28 1019.0 - 0.0 - - - - - - -
28/08:00pm 19.0 S 23 28 1018.9 - 0.0 - - - - - - -
28/07:30pm 18.7 S 23 27 1018.5 - 0.0 - - - - - - -
28/07:00pm 18.7 S 22 27 1018.3 - 0.0 - - - - - - -
28/06:30pm 18.8 SSW 20 25 1018.3 - 0.0 - - - - - - -
28/06:00pm 18.7 SSW 18 24 1018.2 - 0.0 - - - - - - -
28/05:30pm 18.8 SSW 17 21 1018.3 - 0.0 - - - - - - -
28/05:00pm 19.0 S 16 21 1018.0 - 0.0 - - - - - - -
28/04:30pm 19.4 SSW 17 20 1018.0 - 0.0 - - - - - - -
28/04:00pm 19.3 SSW 18 22 1017.5 - 0.0 - - - - - - -
28/03:30pm 20.3 SSW 18 22 1017.7 - 0.0 - - - - - - -
28/03:00pm 19.0 S 12 16 1017.6 - 0.0 - - - - - - -
28/02:30pm 18.2 S 11 13 1018.1 - 0.0 - - - - - - -
28/02:00pm 19.5 S 8 11 1018.2 - 0.0 - - - - - - -
28/01:30pm 20.2 S 9 13 1018.4 - 0.0 - - - - - - -
28/01:00pm 18.0 S 9 13 1018.7 - 0.0 - - - - - - -
28/12:30pm 18.9 SSE 8 11 1019.0 - 0.0 - - - - - - -
28/12:00pm 18.9 SSE 9 11 1019.1 - 0.0 - - - - - - -
28/11:30am 19.7 S 9 12 1019.2 - 0.0 - - - - - - -
28/11:00am 19.1 SSE 8 11 1019.1 - 0.0 - - - - - - -
28/10:30am 18.8 SE 7 10 1019.4 - 0.0 - - - - - - -
28/10:00am 18.3 SE 6 9 1019.4 - 0.0 - - - - - - -
28/09:30am 17.8 ESE 6 8 1019.3 - 0.0 - - - - - - -
28/09:00am 17.4 ESE 7 9 1019.2 - 0.0 - - - - - - -
28/08:30am 17.1 ESE 7 9 1019.0 - 0.0 - - - - - - -
28/08:00am 17.5 ESE 7 11 1018.9 - 0.0 - - - - - - -
28/07:30am 17.1 SE 9 12 1018.6 - 0.0 - - - - - - -
28/07:00am 16.5 SE 10 13 1018.9 - 0.0 - - - - - - -
28/06:30am 16.1 SE 12 15 1018.4 - 0.0 - - - - - - -
28/06:00am 16.1 SSE 12 15 1018.3 - 0.0 - - - - - - -
28/05:30am 16.1 SSE 11 14 1018.3 - 0.0 - - - - - - -
28/05:00am 16.1 SSE 12 17 1018.0 - 0.0 - - - - - - -
28/04:30am 16.3 SE 12 15 1018.5 - 0.0 - - - - - - -
28/04:00am 16.3 SSE 11 15 1018.6 - 0.0 - - - - - - -
28/03:30am 16.4 SSE 11 14 1018.5 - 0.0 - - - - - - -
28/03:00am 16.5 SSE 10 14 1018.8 - 0.0 - - - - - - -
28/02:30am 16.6 SE 11 15 1018.9 - 0.0 - - - - - - -
28/02:00am 16.9 SSE 11 15 1019.0 - 0.0 - - - - - - -
28/01:30am 17.1 SSE 13 15 1019.0 - 0.0 - - - - - - -
28/01:00am 17.2 SSE 13 15 1019.0 - 0.0 - - - - - - -
28/12:30am 17.3 SSE 12 16 1019.2 - 0.0 - - - - - - -
28/12:00am 17.4 S 13 16 1019.2 - 0.0 - - - - - - -
 
Date/Time
WST
Temp
°C
Wind Pressure Rain since
9am
mm
Weather Cloud Vis
km
Sea
Height
m
Swell
Dir  Spd
kts
Gust
kts
hPa Trend Height
m
Period
s
Dir
27/11:30pm 17.4 SSE 13 16 1019.1 - 0.0 - - - - - - -
27/11:00pm 17.6 SSE 14 17 1019.1 - 0.0 - - - - - - -
27/10:30pm 17.6 S 16 18 1019.3 - 0.0 - - - - - - -
27/10:00pm 17.6 SSE 15 18 1019.6 - 0.0 - - - - - - -
27/09:30pm 17.7 S 16 20 1019.6 - 0.0 - - - - - - -
27/09:00pm 17.8 S 17 21 1019.4 - 0.0 - - - - - - -
27/08:30pm 17.9 S 19 22 1019.1 - 0.0 - - - - - - -
27/08:00pm 17.8 S 17 22 1019.1 - 0.0 - - - - - - -
27/07:30pm 18.0 S 20 25 1018.6 - 0.0 - - - - - - -
27/07:00pm 18.1 S 20 24 1018.5 - 0.0 - - - - - - -
27/06:30pm 17.9 S 19 24 1018.6 - 0.0 - - - - - - -
27/06:00pm 18.0 S 20 25 1018.7 - 0.0 - - - - - - -
27/05:30pm 18.1 S 20 24 1018.6 - 0.0 - - - - - - -
27/05:00pm 18.7 S 20 25 1018.4 - 0.0 - - - - - - -
27/04:30pm 19.2 S 21 27 1018.7 - 0.0 - - - - - - -
27/04:00pm 19.7 S 19 23 1019.1 - 0.0 - - - - - - -
27/03:30pm 19.4 S 17 21 1019.5 - 0.0 - - - - - - -
27/03:00pm 19.7 S 17 20 1019.8 - 0.0 - - - - - - -
27/02:30pm 19.9 S 18 22 1019.9 - 0.0 - - - - - - -
27/02:00pm 19.7 S 16 20 1020.3 - 0.0 - - - - - - -
27/01:30pm 20.0 S 15 18 1020.7 - 0.0 - - - - - - -
27/01:00pm 19.3 SSE 13 16 1021.5 - 0.0 - - - - - - -
27/12:30pm 19.6 SSE 9 13 1022.0 - 0.0 - - - - - - -
27/12:00pm 19.0 SSE 10 13 1022.3 - 0.0 - - - - - - -
27/11:30am 20.1 SE 9 13 1022.7 - 0.0 - - - - - - -
27/11:00am 19.6 ESE 7 11 1023.0 - 0.0 - - - - - - -

Other Formats:

Comma delimited format used in spreadsheet applications
http://www.bom.gov.au/fwo/IDW60701/IDW60701.94602.axf

JavaScript Object Notation format (JSON) in row-major order
http://www.bom.gov.au/fwo/IDW60701/IDW60701.94602.json